Terminal Aerodrome Forecast
Issued by NWS

Home | Current Version | Previous Version | Text Only | Print | Product List | Glossary On
Versions: 1 2 3 4 5 6 7 8 9 10 11 12
000
FTUS42 KMHX 180521
TAFOAJ
TAF
KOAJ 180521Z 1806/1906 20003KT P6SM OVC050
     FM181100 VRB03KT P6SM BKN025
     FM181400 27005KT P6SM SCT030
     FM190100 00000KT P6SM SCT025 BKN200
      AMD LTD TO CLD VIS AND WIND=

USA.gov is the U.S. government's official web portal to all federal, state and local government web resources and services.